Time;durP1;ratioP1;P1;durP2;ratioP2;P2;SDS_P1;SDS_P2;PMS_P1;PMS_P2;Temp;Humidity;BMP_temperature;BMP_pressure;BME280_temperature;BME280_humidity;BME280_pressure;Samples;Min_cycle;Max_cycle;Signal;HPM_P1;HPM_P2
2022/04/07 00:00:47;;;;;;;4.45;2.13;;;10.00;99.90;;;;;;4967949;28;20118;-90
2022/04/07 00:03:13;;;;;;;3.33;1.90;;;10.00;99.90;;;;;;4967884;28;20026;-90
2022/04/07 00:05:38;;;;;;;3.70;1.73;;;10.00;99.90;;;;;;4966757;28;20042;-91
2022/04/07 00:08:05;;;;;;;7.30;1.70;;;10.00;99.90;;;;;;4969070;28;20073;-89
2022/04/07 00:10:31;;;;;;;4.30;2.08;;;10.00;99.90;;;;;;4969301;28;20042;-91
2022/04/07 00:12:57;;;;;;;4.10;2.20;;;9.90;99.90;;;;;;4971536;28;20435;-92
2022/04/07 00:15:23;;;;;;;5.72;2.05;;;9.90;99.90;;;;;;4972724;28;20034;-91
2022/04/07 00:17:49;;;;;;;5.30;1.58;;;9.90;99.90;;;;;;4970113;28;20037;-92
2022/04/07 00:20:14;;;;;;;4.18;1.80;;;9.90;99.90;;;;;;4969974;28;20176;-90
2022/04/07 00:22:41;;;;;;;3.10;1.48;;;9.80;99.90;;;;;;4971434;28;20121;-91
2022/04/07 00:25:07;;;;;;;2.50;1.73;;;9.80;99.90;;;;;;4974994;28;20038;-90
2022/04/07 00:27:32;;;;;;;4.25;2.20;;;9.80;99.90;;;;;;4970990;28;20469;-91
2022/04/07 00:29:58;;;;;;;2.72;1.50;;;9.80;99.90;;;;;;4971522;28;20038;-90
2022/04/07 00:32:23;;;;;;;4.38;1.58;;;9.80;99.90;;;;;;4969930;28;20068;-89
2022/04/07 00:34:54;;;;;;;8.18;1.75;;;9.80;99.90;;;;;;4969724;28;20033;-89
2022/04/07 00:37:25;;;;;;;3.75;1.40;;;9.80;99.90;;;;;;4969953;28;20049;-89
2022/04/07 00:39:51;;;;;;;4.15;1.33;;;9.80;99.90;;;;;;4971249;28;20038;-88
2022/04/07 00:42:17;;;;;;;5.03;1.23;;;9.80;99.90;;;;;;4972735;28;20061;-89
2022/04/07 00:44:46;;;;;;;6.30;1.50;;;9.80;99.90;;;;;;4970868;28;20029;-90
2022/04/07 00:47:11;;;;;;;2.97;1.08;;;9.80;99.90;;;;;;4986895;28;20101;-90
2022/04/07 00:49:37;;;;;;;6.32;0.95;;;9.80;99.90;;;;;;4969887;28;20494;-89
2022/04/07 00:52:03;;;;;;;7.68;0.82;;;9.80;99.90;;;;;;4966020;28;20030;-90
2022/04/07 00:54:30;;;;;;;6.47;0.82;;;9.80;99.90;;;;;;4970660;28;20026;-90
2022/04/07 00:56:56;;;;;;;5.57;0.90;;;9.80;99.90;;;;;;4969378;28;20026;-91
2022/04/07 00:59:22;;;;;;;4.97;0.70;;;9.80;99.90;;;;;;4969561;28;20113;-93
2022/04/07 01:01:48;;;;;;;4.55;1.02;;;9.80;99.90;;;;;;4968751;28;20589;-93
2022/04/07 01:04:15;;;;;;;6.60;0.60;;;9.70;99.90;;;;;;4970351;28;20041;-93
2022/04/07 01:06:44;;;;;;;5.28;0.70;;;9.70;99.90;;;;;;4970369;28;20101;-93
2022/04/07 01:09:10;;;;;;;6.53;0.82;;;9.60;99.90;;;;;;4970574;28;20026;-92
2022/04/07 01:11:37;;;;;;;4.43;0.55;;;9.60;99.90;;;;;;4963984;28;20030;-92
2022/04/07 01:14:03;;;;;;;12.10;1.00;;;9.50;99.90;;;;;;4968847;28;20034;-93
2022/04/07 01:16:30;;;;;;;7.55;0.90;;;9.50;99.90;;;;;;4970287;28;20031;-93
2022/04/07 01:18:59;;;;;;;4.55;1.00;;;9.50;99.90;;;;;;4968016;28;20026;-94
2022/04/07 01:21:25;;;;;;;7.30;1.23;;;9.40;99.90;;;;;;4993913;28;20054;-95
2022/04/07 01:24:02;;;;;;;14.98;2.25;;;9.40;99.90;;;;;;4989302;28;20034;-96
2022/04/07 01:26:30;;;;;;;8.80;0.95;;;9.30;99.90;;;;;;5012289;28;20028;-96
2022/04/07 01:28:56;;;;;;;9.38;1.20;;;9.30;99.90;;;;;;4976685;28;20031;-96
2022/04/07 01:31:22;;;;;;;5.10;1.13;;;9.20;99.90;;;;;;4982737;28;20030;-96
2022/04/07 01:33:48;;;;;;;9.55;1.33;;;9.20;99.90;;;;;;4978949;28;20499;-96
2022/04/07 01:36:14;;;;;;;10.10;1.67;;;9.20;99.90;;;;;;5000405;28;20129;-93
2022/04/07 01:38:40;;;;;;;9.13;1.67;;;9.20;99.90;;;;;;4974355;28;20118;-93
2022/04/07 01:41:07;;;;;;;6.38;1.33;;;9.20;99.90;;;;;;4972089;28;20061;-93
2022/04/07 01:43:33;;;;;;;5.95;0.95;;;9.20;99.90;;;;;;4989745;28;21183;-94
2022/04/07 01:45:59;;;;;;;6.47;1.10;;;9.10;99.90;;;;;;4970929;28;20129;-93
2022/04/07 01:48:24;;;;;;;8.90;1.27;;;9.20;99.90;;;;;;4969061;28;20094;-93
2022/04/07 01:50:51;;;;;;;7.15;1.15;;;9.20;99.90;;;;;;4969580;28;20101;-94
2022/04/07 01:53:17;;;;;;;10.02;1.35;;;9.20;99.90;;;;;;4963359;28;20096;-94
2022/04/07 01:55:43;;;;;;;8.75;1.30;;;9.20;99.90;;;;;;4972667;28;20030;-92
2022/04/07 01:58:10;;;;;;;8.25;1.77;;;9.30;99.90;;;;;;4971660;28;20086;-92
2022/04/07 02:00:36;;;;;;;3.80;1.00;;;9.30;99.90;;;;;;4971057;28;20058;-95
2022/04/07 02:03:05;;;;;;;5.45;1.33;;;9.30;99.90;;;;;;4988064;28;20017;-95
2022/04/07 02:05:48;;;;;;;7.47;1.40;;;9.30;99.90;;;;;;4990356;28;20030;-95
2022/04/07 02:08:14;;;;;;;9.48;1.23;;;9.30;99.90;;;;;;4990546;28;20034;-95
2022/04/07 02:10:40;;;;;;;6.00;1.50;;;9.20;99.90;;;;;;4978896;28;21959;-96
2022/04/07 02:13:05;;;;;;;9.82;1.63;;;9.20;99.90;;;;;;4972644;28;20050;-95
2022/04/07 02:15:31;;;;;;;8.88;1.33;;;9.20;99.90;;;;;;4981536;28;20045;-95
2022/04/07 02:17:56;;;;;;;9.68;1.58;;;9.20;99.90;;;;;;4983198;28;20065;-95
2022/04/07 02:20:22;;;;;;;7.32;1.50;;;9.20;99.90;;;;;;4979607;28;20034;-96
2022/04/07 02:22:52;;;;;;;5.95;1.30;;;9.20;99.90;;;;;;4983174;28;20029;-96
2022/04/07 02:25:31;;;;;;;12.18;1.58;;;9.20;99.90;;;;;;5014601;28;20189;-96
2022/04/07 02:28:07;;;;;;;11.25;1.83;;;9.30;99.90;;;;;;5015756;28;20016;-96
2022/04/07 02:30:45;;;;;;;10.40;2.13;;;9.20;99.90;;;;;;5014232;28;20038;-96
2022/04/07 02:33:12;;;;;;;11.88;1.27;;;9.20;99.90;;;;;;4977808;28;20043;-96
2022/04/07 02:35:38;;;;;;;9.00;1.27;;;9.20;99.90;;;;;;4979698;28;20094;-95
2022/04/07 02:38:04;;;;;;;10.75;1.10;;;9.30;99.90;;;;;;4978027;28;20120;-96
2022/04/07 02:40:29;;;;;;;8.13;1.27;;;9.30;99.90;;;;;;4966742;28;20113;-94
2022/04/07 02:42:55;;;;;;;9.07;1.88;;;9.40;99.90;;;;;;4980326;28;20489;-96
2022/04/07 02:45:20;;;;;;;14.07;1.63;;;9.40;99.90;;;;;;4972075;28;20076;-95
2022/04/07 02:47:46;;;;;;;11.63;1.40;;;9.50;99.90;;;;;;4969442;28;20490;-95
2022/04/07 02:50:12;;;;;;;9.20;1.25;;;9.60;99.90;;;;;;4969168;28;20054;-93
2022/04/07 02:52:38;;;;;;;7.72;1.50;;;9.60;99.90;;;;;;4970331;28;20080;-95
2022/04/07 02:55:04;;;;;;;11.77;1.30;;;9.60;99.90;;;;;;4970276;28;20026;-96
2022/04/07 02:57:31;;;;;;;15.25;1.88;;;9.60;99.90;;;;;;4966321;28;20487;-94
2022/04/07 02:59:59;;;;;;;12.43;1.38;;;9.60;99.90;;;;;;4971095;28;20930;-93
2022/04/07 03:02:26;;;;;;;8.63;1.77;;;9.60;99.90;;;;;;4968279;28;20064;-94
2022/04/07 03:04:51;;;;;;;15.27;1.65;;;9.60;99.90;;;;;;4967854;28;20046;-94
2022/04/07 03:07:17;;;;;;;11.00;1.17;;;9.50;99.90;;;;;;4964310;28;20397;-93
2022/04/07 03:09:43;;;;;;;8.68;1.20;;;9.50;99.90;;;;;;4964060;28;20565;-94
2022/04/07 03:12:09;;;;;;;13.05;1.75;;;9.50;99.90;;;;;;4966305;28;20442;-94
2022/04/07 03:14:35;;;;;;;7.72;1.17;;;9.50;99.90;;;;;;4966402;28;20035;-94
2022/04/07 03:17:01;;;;;;;10.30;1.20;;;9.50;99.90;;;;;;4959054;28;20085;-93
2022/04/07 03:19:26;;;;;;;8.38;1.00;;;9.60;99.90;;;;;;4956894;28;20038;-92
2022/04/07 03:21:52;;;;;;;7.07;1.23;;;9.60;99.90;;;;;;4960759;28;20487;-93
2022/04/07 03:24:17;;;;;;;12.60;1.13;;;9.60;99.90;;;;;;4966484;28;20442;-92
2022/04/07 03:26:43;;;;;;;10.70;1.17;;;9.60;99.90;;;;;;4961794;28;20164;-93
2022/04/07 03:29:09;;;;;;;12.98;1.58;;;9.70;99.90;;;;;;4962508;28;20037;-93
2022/04/07 03:31:34;;;;;;;15.75;1.60;;;9.70;99.90;;;;;;4962839;28;20026;-93
2022/04/07 03:34:01;;;;;;;8.38;1.10;;;9.70;99.90;;;;;;4966077;28;20233;-92
2022/04/07 03:36:26;;;;;;;7.88;1.10;;;9.70;99.90;;;;;;4958814;28;20081;-94
2022/04/07 03:38:52;;;;;;;8.32;2.10;;;9.60;99.90;;;;;;4965848;28;20049;-92
2022/04/07 03:41:18;;;;;;;11.90;1.05;;;9.70;99.90;;;;;;4965233;28;20398;-93
2022/04/07 03:43:43;;;;;;;10.73;1.33;;;9.70;99.90;;;;;;4967959;28;20120;-92
2022/04/07 03:46:10;;;;;;;11.02;1.27;;;9.70;99.90;;;;;;4964336;28;20081;-93
2022/04/07 03:48:35;;;;;;;8.70;1.63;;;9.70;99.90;;;;;;4964144;28;20026;-94
2022/04/07 03:51:01;;;;;;;10.57;1.00;;;9.70;99.90;;;;;;4982229;28;20073;-94
2022/04/07 03:53:27;;;;;;;10.18;1.23;;;9.70;99.90;;;;;;4965831;28;20117;-94
2022/04/07 03:55:53;;;;;;;8.70;0.85;;;9.70;99.90;;;;;;4971792;28;20029;-95
2022/04/07 03:58:18;;;;;;;12.50;1.42;;;9.70;99.90;;;;;;4963379;28;20387;-95
2022/04/07 04:00:44;;;;;;;8.57;1.00;;;9.80;99.90;;;;;;4966698;28;20030;-96
2022/04/07 04:03:09;;;;;;;7.95;1.10;;;9.80;99.90;;;;;;4967447;28;20030;-95
2022/04/07 04:05:35;;;;;;;10.25;1.40;;;9.80;99.90;;;;;;4969114;28;20092;-96
2022/04/07 04:08:00;;;;;;;12.02;1.25;;;9.80;99.90;;;;;;4969965;28;20031;-95
2022/04/07 04:10:26;;;;;;;8.85;1.10;;;9.80;99.90;;;;;;4965547;28;20454;-94
2022/04/07 04:12:52;;;;;;;10.98;1.20;;;9.90;99.90;;;;;;4965413;28;20055;-93
2022/04/07 04:15:18;;;;;;;8.75;0.98;;;9.90;99.90;;;;;;4964858;28;20027;-95
2022/04/07 04:17:43;;;;;;;8.65;0.88;;;9.90;99.90;;;;;;4963211;28;20027;-94
2022/04/07 04:20:10;;;;;;;10.70;0.90;;;9.90;99.90;;;;;;4962222;28;20133;-95
2022/04/07 04:22:36;;;;;;;9.48;1.17;;;9.90;99.90;;;;;;4960093;28;20049;-94
2022/04/07 04:25:02;;;;;;;6.57;1.00;;;9.80;99.90;;;;;;4965740;28;20034;-94
2022/04/07 04:27:27;;;;;;;9.95;1.13;;;9.90;99.90;;;;;;4967019;28;20153;-92
2022/04/07 04:29:53;;;;;;;10.90;1.25;;;9.80;99.90;;;;;;4959649;28;20503;-92
2022/04/07 04:32:18;;;;;;;11.55;0.77;;;9.80;99.90;;;;;;4961053;28;20478;-93
2022/04/07 04:34:44;;;;;;;11.40;1.10;;;9.80;99.90;;;;;;4959904;28;20470;-93
2022/04/07 04:37:09;;;;;;;9.93;1.30;;;9.80;99.90;;;;;;4962370;28;20170;-93
2022/04/07 04:39:35;;;;;;;8.52;1.00;;;9.80;99.90;;;;;;4961020;28;20651;-94
2022/04/07 04:42:00;;;;;;;7.88;1.02;;;9.80;99.90;;;;;;4960832;28;20889;-91
2022/04/07 04:44:26;;;;;;;8.27;1.40;;;9.80;99.90;;;;;;4961876;28;20915;-92
2022/04/07 04:46:51;;;;;;;7.45;0.55;;;9.80;99.90;;;;;;4961043;28;20041;-92
2022/04/07 04:49:17;;;;;;;6.50;0.60;;;9.90;99.90;;;;;;4965438;28;20030;-93
2022/04/07 04:51:42;;;;;;;5.57;0.80;;;9.90;99.90;;;;;;4966853;28;20094;-91
2022/04/07 04:54:08;;;;;;;6.68;0.80;;;9.90;99.90;;;;;;4969807;28;20026;-91
2022/04/07 04:56:33;;;;;;;6.32;0.82;;;10.00;99.90;;;;;;4972462;28;20054;-92
2022/04/07 04:58:59;;;;;;;5.32;0.73;;;10.00;99.90;;;;;;4975650;28;20153;-91
2022/04/07 05:01:25;;;;;;;5.63;0.60;;;10.00;99.90;;;;;;4964691;28;20023;-93
2022/04/07 05:03:50;;;;;;;5.50;0.88;;;10.10;99.90;;;;;;4973200;28;20062;-92
2022/04/07 05:06:16;;;;;;;7.30;0.50;;;10.10;99.90;;;;;;4970633;28;20113;-93
2022/04/07 05:08:42;;;;;;;5.70;0.75;;;10.20;99.90;;;;;;4971098;28;20037;-92
2022/04/07 05:11:07;;;;;;;4.40;0.60;;;10.30;99.90;;;;;;4967390;28;20053;-93
2022/04/07 05:13:33;;;;;;;4.20;0.50;;;10.20;99.90;;;;;;4965859;28;20141;-91
2022/04/07 05:15:58;;;;;;;3.58;0.50;;;10.30;99.90;;;;;;4969385;28;20042;-92
2022/04/07 05:18:24;;;;;;;7.53;1.30;;;10.30;99.90;;;;;;4971192;28;20108;-94
2022/04/07 05:20:50;;;;;;;2.00;0.40;;;10.30;99.90;;;;;;4972197;28;20034;-94
2022/04/07 05:23:15;;;;;;;4.75;0.52;;;10.30;99.90;;;;;;4972472;28;20089;-93
2022/04/07 05:25:41;;;;;;;3.50;0.40;;;10.20;99.90;;;;;;4967925;28;20034;-94
2022/04/07 05:28:06;;;;;;;5.80;0.40;;;10.30;99.90;;;;;;4976493;28;20030;-96
2022/04/07 05:30:32;;;;;;;2.90;0.40;;;10.20;99.90;;;;;;4989214;28;20505;-93
2022/04/07 05:32:58;;;;;;;4.65;0.40;;;10.30;99.90;;;;;;4973349;28;20018;-94
2022/04/07 05:35:28;;;;;;;5.47;0.50;;;10.30;99.90;;;;;;4959684;28;20065;-95
2022/04/07 05:38:02;;;;;;;3.35;0.30;;;10.30;99.90;;;;;;4970293;28;20094;-95
2022/04/07 05:40:29;;;;;;;3.03;0.50;;;10.30;99.90;;;;;;4980130;28;20109;-95
2022/04/07 05:42:55;;;;;;;3.05;0.32;;;10.20;99.90;;;;;;4981144;28;20080;-96
2022/04/07 05:45:21;;;;;;;2.03;0.35;;;10.20;99.90;;;;;;4976460;28;20023;-95
2022/04/07 05:47:47;;;;;;;1.83;0.45;;;10.20;99.90;;;;;;4979301;28;20050;-95
2022/04/07 05:50:12;;;;;;;3.47;0.40;;;10.20;99.90;;;;;;4976197;28;20034;-95
2022/04/07 05:52:38;;;;;;;3.95;0.30;;;10.20;99.90;;;;;;4982618;28;20027;-96
2022/04/07 05:55:04;;;;;;;1.83;0.40;;;10.20;99.90;;;;;;4983306;28;20049;-95
2022/04/07 05:57:30;;;;;;;3.65;0.43;;;10.20;99.90;;;;;;4984417;28;20023;-96
2022/04/07 06:00:12;;;;;;;3.10;0.40;;;10.10;99.90;;;;;;4995470;28;20027;-96
2022/04/07 06:02:55;;;;;;;4.05;0.63;;;10.10;99.90;;;;;;5008665;28;20117;-95
2022/04/07 06:05:21;;;;;;;2.30;0.40;;;10.10;99.90;;;;;;4980899;28;20042;-95
2022/04/07 06:07:48;;;;;;;2.67;0.50;;;10.00;99.90;;;;;;4977301;28;20037;-94
2022/04/07 06:10:17;;;;;;;3.47;0.50;;;9.90;99.90;;;;;;4993264;28;20030;-96
2022/04/07 06:12:46;;;;;;;3.78;0.50;;;9.90;99.90;;;;;;4995041;28;20079;-96
2022/04/07 06:15:17;;;;;;;2.45;0.50;;;9.90;99.90;;;;;;4995211;28;20035;-96
2022/04/07 06:18:07;;;;;;;3.15;0.50;;;9.90;99.90;;;;;;4995425;28;20027;-96
2022/04/07 06:21:14;;;;;;;4.65;0.50;;;9.80;99.90;;;;;;4987660;28;20028;-93
2022/04/07 06:23:59;;;;;;;4.38;0.70;;;9.80;99.90;;;;;;4979206;28;20055;-96
2022/04/07 06:26:28;;;;;;;4.03;0.60;;;9.60;99.90;;;;;;4997326;28;20423;-96
2022/04/07 06:29:03;;;;;;;5.68;0.93;;;9.60;99.90;;;;;;4981075;28;20035;-96
2022/04/07 06:31:30;;;;;;;4.32;0.70;;;9.60;99.90;;;;;;4992762;28;20033;-96
2022/04/07 06:34:24;;;;;;;5.45;1.02;;;9.60;99.90;;;;;;4976353;28;20202;-96
2022/04/07 06:37:04;;;;;;;5.00;0.90;;;9.60;99.90;;;;;;4971722;23;20137;-83
2022/04/07 06:39:30;;;;;;;6.70;0.75;;;9.60;99.90;;;;;;4992942;28;20122;-83
2022/04/07 06:41:55;;;;;;;5.15;0.90;;;9.60;99.90;;;;;;4994747;28;20049;-84
2022/04/07 06:44:21;;;;;;;4.80;1.05;;;9.60;99.90;;;;;;4985779;28;20066;-83
2022/04/07 06:46:46;;;;;;;3.60;0.75;;;9.60;99.90;;;;;;4974715;28;20031;-83
2022/04/07 06:49:12;;;;;;;4.57;1.15;;;9.50;99.90;;;;;;4973571;28;20062;-84
2022/04/07 06:51:37;;;;;;;3.65;0.90;;;9.60;99.90;;;;;;4983443;28;20463;-85
2022/04/07 06:54:03;;;;;;;3.83;1.20;;;9.50;99.90;;;;;;4971707;28;20039;-84
2022/04/07 06:56:28;;;;;;;4.55;1.02;;;9.60;99.90;;;;;;4973244;28;20038;-84
2022/04/07 06:58:55;;;;;;;6.70;1.38;;;9.60;99.90;;;;;;4967313;28;20020;-82
2022/04/07 07:01:20;;;;;;;7.05;1.25;;;9.60;99.90;;;;;;4974051;28;20027;-83
2022/04/07 07:03:46;;;;;;;4.65;1.00;;;9.60;99.90;;;;;;4974819;28;20058;-84
2022/04/07 07:06:11;;;;;;;9.05;1.27;;;9.70;99.90;;;;;;4975055;28;20360;-83
2022/04/07 07:08:37;;;;;;;6.43;0.90;;;9.70;99.90;;;;;;4973927;28;20053;-84
2022/04/07 07:11:02;;;;;;;6.68;1.08;;;9.70;99.90;;;;;;4974334;28;20129;-84
2022/04/07 07:13:28;;;;;;;5.40;1.40;;;9.70;99.90;;;;;;4974581;28;20493;-83
2022/04/07 07:15:55;;;;;;;4.47;0.57;;;9.70;99.90;;;;;;4974933;28;20053;-85
2022/04/07 07:18:20;;;;;;;3.47;0.20;;;9.60;99.90;;;;;;4967985;28;20110;-82
2022/04/07 07:20:46;;;;;;;5.93;0.20;;;8.50;99.90;;;;;;4981626;28;20146;-80
2022/04/07 07:23:11;;;;;;;2.08;0.20;;;7.00;99.90;;;;;;4972982;28;20023;-81
2022/04/07 07:25:37;;;;;;;5.63;0.63;;;6.30;99.90;;;;;;4970987;28;20038;-80
2022/04/07 07:28:04;;;;;;;3.80;0.70;;;6.00;99.90;;;;;;4974240;28;20035;-80
2022/04/07 07:30:29;;;;;;;4.15;0.30;;;5.80;99.90;;;;;;4974156;28;20394;-79
2022/04/07 07:32:55;;;;;;;4.88;0.20;;;5.60;99.90;;;;;;4976052;28;20093;-79
2022/04/07 07:35:23;;;;;;;3.65;0.20;;;5.60;99.90;;;;;;4993391;28;20117;-80
2022/04/07 07:37:53;;;;;;;7.55;0.50;;;5.60;99.90;;;;;;5007106;28;20050;-80
2022/04/07 07:40:21;;;;;;;3.35;0.50;;;5.50;99.90;;;;;;4994555;28;20038;-81
2022/04/07 07:42:47;;;;;;;4.47;0.40;;;5.50;99.90;;;;;;4974448;28;20443;-80
2022/04/07 07:45:14;;;;;;;6.72;0.32;;;5.50;99.90;;;;;;4991109;28;20441;-81
2022/04/07 07:47:40;;;;;;;2.85;0.40;;;5.60;99.90;;;;;;4992692;28;20030;-81
2022/04/07 07:50:06;;;;;;;5.32;0.50;;;5.60;99.90;;;;;;4993391;28;20073;-81
2022/04/07 07:52:32;;;;;;;9.50;0.50;;;5.60;99.90;;;;;;4992036;28;20478;-81
2022/04/07 07:54:57;;;;;;;5.28;1.35;;;5.70;99.90;;;;;;5001893;28;20038;-80
2022/04/07 07:57:23;;;;;;;6.38;0.50;;;5.70;99.90;;;;;;4992990;28;20026;-80
2022/04/07 07:59:51;;;;;;;7.57;0.65;;;5.70;99.90;;;;;;4998661;28;20041;-80
2022/04/07 08:02:19;;;;;;;4.32;0.45;;;5.70;99.90;;;;;;4993104;28;20022;-80
2022/04/07 08:04:45;;;;;;;6.22;0.50;;;5.80;99.90;;;;;;5008709;28;20033;-80
2022/04/07 08:07:11;;;;;;;4.47;0.80;;;5.80;99.90;;;;;;4992807;28;20034;-80
2022/04/07 08:09:37;;;;;;;6.30;1.02;;;5.80;99.90;;;;;;4995128;28;20030;-81
2022/04/07 08:12:03;;;;;;;6.50;1.02;;;5.80;99.90;;;;;;5004916;28;20026;-79
2022/04/07 08:14:29;;;;;;;4.85;0.70;;;5.90;99.90;;;;;;4985112;28;20506;-82
2022/04/07 08:16:55;;;;;;;3.67;0.90;;;5.90;99.90;;;;;;4982796;28;20019;-81
2022/04/07 08:19:21;;;;;;;7.72;1.30;;;5.90;99.90;;;;;;4987085;28;20024;-81
2022/04/07 08:21:46;;;;;;;2.85;0.60;;;6.00;99.90;;;;;;4988953;28;20038;-83
2022/04/07 08:24:19;;;;;;;8.55;1.98;;;6.10;99.90;;;;;;4993396;28;20073;-83
2022/04/07 08:26:45;;;;;;;4.95;1.02;;;6.20;99.90;;;;;;4999761;28;20030;-81
2022/04/07 08:29:11;;;;;;;6.13;0.65;;;6.30;99.90;;;;;;5001319;28;20041;-83
2022/04/07 08:31:38;;;;;;;4.70;0.68;;;6.30;99.90;;;;;;4989924;28;20038;-83
2022/04/07 08:34:03;;;;;;;4.22;0.98;;;6.50;99.90;;;;;;4996500;28;20026;-83
2022/04/07 08:36:29;;;;;;;7.68;0.98;;;6.60;99.90;;;;;;4995632;28;20097;-82
2022/04/07 08:38:54;;;;;;;3.92;0.70;;;6.80;99.90;;;;;;4995714;28;20034;-82
2022/04/07 08:41:23;;;;;;;4.18;0.70;;;7.00;99.90;;;;;;4988170;28;20108;-83
2022/04/07 08:43:48;;;;;;;5.40;0.82;;;7.00;99.90;;;;;;4997626;28;20134;-83
2022/04/07 08:46:14;;;;;;;10.45;0.88;;;6.90;99.90;;;;;;4982995;28;20032;-83
2022/04/07 08:48:42;;;;;;;7.53;1.08;;;6.90;99.90;;;;;;5000291;28;20038;-84
2022/04/07 08:51:09;;;;;;;6.65;1.05;;;6.90;99.90;;;;;;4997073;28;20038;-82
2022/04/07 08:53:35;;;;;;;5.80;0.70;;;6.90;99.90;;;;;;4994817;28;20081;-81
2022/04/07 08:56:04;;;;;;;3.42;0.60;;;7.10;99.90;;;;;;4991239;28;20425;-85
2022/04/07 08:58:30;;;;;;;3.50;0.50;;;7.20;99.90;;;;;;4996675;28;20022;-84
2022/04/07 09:00:56;;;;;;;4.88;0.65;;;7.30;99.90;;;;;;4996345;28;20106;-84
2022/04/07 09:03:22;;;;;;;7.57;0.63;;;7.50;99.90;;;;;;4996884;28;20505;-83
2022/04/07 09:05:56;;;;;;;8.60;1.20;;;7.70;99.90;;;;;;4997072;28;20037;-83
2022/04/07 09:08:38;;;;;;;4.63;0.70;;;7.80;99.90;;;;;;4989381;28;20109;-82
2022/04/07 09:11:06;;;;;;;8.32;0.60;;;8.00;99.90;;;;;;4964443;28;20038;-85
2022/04/07 09:13:34;;;;;;;6.63;0.88;;;8.00;99.90;;;;;;4996824;28;20466;-85
2022/04/07 09:16:02;;;;;;;7.32;0.80;;;8.00;99.90;;;;;;4998813;28;20036;-85
2022/04/07 09:18:30;;;;;;;4.15;0.60;;;8.10;99.90;;;;;;4997170;28;20054;-85
2022/04/07 09:20:55;;;;;;;4.22;0.65;;;8.30;99.90;;;;;;4997004;28;20513;-85
2022/04/07 09:23:21;;;;;;;6.95;1.20;;;8.60;99.90;;;;;;4995566;28;20022;-87
2022/04/07 09:25:49;;;;;;;9.88;0.75;;;8.80;99.90;;;;;;4997243;28;20030;-87
2022/04/07 09:28:28;;;;;;;5.65;0.90;;;9.00;99.90;;;;;;4997003;28;20022;-86
2022/04/07 09:30:56;;;;;;;6.15;0.85;;;9.10;99.90;;;;;;4978893;28;20145;-86
2022/04/07 09:33:22;;;;;;;6.82;0.70;;;9.10;99.90;;;;;;5015607;28;20030;-87
2022/04/07 09:36:03;;;;;;;9.32;1.02;;;9.10;99.90;;;;;;5001821;28;20029;-87
2022/04/07 09:38:31;;;;;;;5.85;0.70;;;9.20;99.90;;;;;;5002451;28;20065;-87
2022/04/07 09:41:08;;;;;;;7.95;0.70;;;9.20;99.90;;;;;;4981223;28;20057;-87
2022/04/07 09:44:03;;;;;;;5.30;0.68;;;9.40;99.90;;;;;;4997396;28;20097;-87
2022/04/07 09:46:37;;;;;;;5.90;0.65;;;9.60;99.90;;;;;;4997800;28;20041;-87
2022/04/07 09:49:07;;;;;;;7.13;0.70;;;9.70;99.90;;;;;;4997395;28;20030;-86
2022/04/07 09:51:52;;;;;;;8.25;0.70;;;9.70;99.90;;;;;;5014788;28;20046;-86
2022/04/07 09:54:18;;;;;;;6.40;0.60;;;9.70;99.90;;;;;;4996775;28;20131;-86
2022/04/07 09:56:47;;;;;;;6.15;0.70;;;9.60;99.90;;;;;;4991217;28;20479;-87
2022/04/07 09:59:16;;;;;;;6.03;0.70;;;9.70;99.90;;;;;;4995521;28;20537;-87
2022/04/07 10:01:43;;;;;;;6.60;0.55;;;9.50;99.90;;;;;;5005523;28;20053;-85
2022/04/07 10:04:09;;;;;;;4.05;1.15;;;9.40;99.90;;;;;;5008553;28;20030;-85
2022/04/07 10:06:37;;;;;;;6.25;0.40;;;9.40;99.90;;;;;;4979630;28;20029;-84
2022/04/07 10:09:06;;;;;;;2.90;0.30;;;9.40;99.90;;;;;;4996025;28;20034;-85
2022/04/07 10:11:32;;;;;;;3.58;0.30;;;9.40;99.90;;;;;;4995984;28;20041;-82
2022/04/07 10:13:59;;;;;;;5.82;0.22;;;9.60;99.90;;;;;;4993791;28;20027;-84
2022/04/07 10:16:27;;;;;;;4.18;0.47;;;9.80;99.90;;;;;;4995157;28;20041;-81
2022/04/07 10:19:05;;;;;;;7.85;0.40;;;10.00;99.90;;;;;;4995069;28;20029;-82
2022/04/07 10:21:53;;;;;;;5.57;0.52;;;10.10;99.90;;;;;;4980283;28;20022;-83
2022/04/07 10:24:41;;;;;;;4.28;0.50;;;10.20;99.90;;;;;;4994179;28;20026;-82
2022/04/07 10:27:10;;;;;;;3.67;0.40;;;10.30;99.90;;;;;;4977399;28;20442;-85
2022/04/07 10:29:39;;;;;;;5.63;0.55;;;10.40;99.90;;;;;;4990102;28;20459;-84
2022/04/07 10:32:17;;;;;;;5.18;0.40;;;10.60;99.90;;;;;;4986590;28;20035;-83
2022/04/07 10:34:56;;;;;;;5.18;0.40;;;10.70;99.90;;;;;;4989332;28;20506;-83
2022/04/07 10:37:44;;;;;;;4.55;0.57;;;10.70;99.90;;;;;;4986153;28;20042;-84
2022/04/07 10:40:31;;;;;;;6.25;0.30;;;10.70;99.90;;;;;;4976852;28;20241;-83
2022/04/07 10:43:18;;;;;;;6.80;0.70;;;10.60;99.90;;;;;;4991559;28;20034;-81
2022/04/07 10:45:46;;;;;;;7.72;0.82;;;10.50;99.90;;;;;;4994855;28;20113;-82
2022/04/07 10:48:29;;;;;;;6.38;0.95;;;10.50;99.90;;;;;;4991463;28;20102;-83
2022/04/07 10:51:03;;;;;;;6.47;0.52;;;10.50;99.90;;;;;;4987469;28;20101;-82
2022/04/07 10:53:34;;;;;;;8.55;0.50;;;10.70;99.90;;;;;;4990266;28;20053;-82
2022/04/07 10:56:08;;;;;;;4.88;0.60;;;10.70;99.90;;;;;;4994291;28;20022;-84
2022/04/07 10:58:47;;;;;;;6.53;0.43;;;10.80;99.90;;;;;;4994344;28;20498;-85
2022/04/07 11:01:36;;;;;;;10.68;1.05;;;10.90;99.90;;;;;;4994308;28;20031;-82
2022/04/07 11:04:23;;;;;;;5.70;0.60;;;11.00;99.90;;;;;;4993907;28;20033;-84
2022/04/07 11:07:19;;;;;;;10.43;1.75;;;11.20;99.90;;;;;;4992208;28;20034;-85
2022/04/07 11:10:19;;;;;;;8.65;0.60;;;11.20;99.90;;;;;;4991700;28;21162;-84
2022/04/07 11:13:01;;;;;;;7.53;0.52;;;11.10;99.90;;;;;;4993592;28;20073;-83
2022/04/07 11:15:45;;;;;;;9.50;0.43;;;10.90;99.90;;;;;;4993753;28;20394;-84
2022/04/07 11:18:25;;;;;;;10.98;1.00;;;10.80;99.90;;;;;;4993915;28;20035;-83
2022/04/07 11:21:23;;;;;;;7.45;0.50;;;10.60;99.90;;;;;;4993953;28;20027;-86
2022/04/07 11:23:48;;;;;;;10.38;0.93;;;10.40;99.90;;;;;;4950370;28;20080;-84
2022/04/07 11:26:26;;;;;;;7.97;0.75;;;10.40;99.90;;;;;;4993494;28;20502;-83
2022/04/07 11:29:11;;;;;;;5.68;0.60;;;10.30;99.90;;;;;;4985792;28;20023;-83
2022/04/07 11:31:50;;;;;;;10.88;1.05;;;10.30;99.90;;;;;;4974532;28;20122;-84
2022/04/07 11:34:42;;;;;;;8.38;0.55;;;10.40;99.90;;;;;;4986442;28;20121;-83
2022/04/07 11:37:08;;;;;;;8.30;0.70;;;10.40;99.90;;;;;;4993205;28;20053;-84
2022/04/07 11:39:37;;;;;;;6.68;0.88;;;10.40;99.90;;;;;;4992519;28;20030;-84
2022/04/07 11:42:03;;;;;;;9.93;0.80;;;10.40;99.90;;;;;;4994103;28;20069;-85
2022/04/07 11:44:28;;;;;;;9.63;1.10;;;10.40;99.90;;;;;;4994132;28;20101;-84
2022/04/07 11:46:54;;;;;;;8.63;0.50;;;10.40;99.90;;;;;;4993274;28;20026;-84
2022/04/07 11:49:22;;;;;;;10.23;1.23;;;10.40;99.90;;;;;;4993892;28;20023;-83
2022/04/07 11:51:47;;;;;;;8.25;0.50;;;10.40;99.90;;;;;;4994285;28;20062;-83
2022/04/07 11:54:17;;;;;;;12.50;1.73;;;10.50;99.90;;;;;;4993815;28;20053;-84
2022/04/07 11:56:42;;;;;;;8.43;0.52;;;10.60;99.90;;;;;;4993960;28;20034;-85
2022/04/07 11:59:10;;;;;;;10.80;0.95;;;10.60;99.90;;;;;;4993775;28;20554;-82
2022/04/07 12:01:40;;;;;;;9.60;0.85;;;10.60;99.90;;;;;;4993732;28;20029;-84
2022/04/07 12:04:09;;;;;;;8.48;0.80;;;10.60;99.90;;;;;;4993863;28;20022;-88
2022/04/07 12:06:36;;;;;;;10.93;0.75;;;10.50;99.90;;;;;;4976629;28;20022;-85
2022/04/07 12:09:04;;;;;;;7.88;0.70;;;10.50;99.90;;;;;;4994160;28;20057;-86
2022/04/07 12:11:32;;;;;;;7.57;1.13;;;10.50;99.90;;;;;;4993076;28;20049;-83
2022/04/07 12:14:00;;;;;;;7.97;0.98;;;10.50;99.90;;;;;;4992607;28;20046;-85
2022/04/07 12:16:26;;;;;;;9.02;0.70;;;10.50;99.90;;;;;;4993060;28;20045;-82
2022/04/07 12:18:59;;;;;;;6.05;0.63;;;10.50;99.90;;;;;;4992682;28;20479;-84
2022/04/07 12:21:27;;;;;;;3.38;0.40;;;10.50;99.90;;;;;;4988629;28;20034;-84
2022/04/07 12:24:13;;;;;;;9.27;0.70;;;10.50;99.90;;;;;;4987449;28;20109;-83
2022/04/07 12:26:47;;;;;;;7.30;0.57;;;10.60;99.90;;;;;;4984862;28;20380;-85
2022/04/07 12:29:17;;;;;;;5.75;0.50;;;10.60;99.90;;;;;;4984271;28;20060;-83
2022/04/07 12:31:44;;;;;;;6.18;0.50;;;10.60;99.80;;;;;;4986452;28;20057;-84
2022/04/07 12:34:17;;;;;;;9.73;0.80;;;10.60;99.40;;;;;;4985742;28;20105;-85
2022/04/07 12:36:43;;;;;;;7.32;0.70;;;10.70;99.90;;;;;;4986632;28;20046;-84
2022/04/07 12:39:15;;;;;;;7.47;0.70;;;10.70;99.90;;;;;;4981368;28;20073;-84
2022/04/07 12:41:52;;;;;;;5.55;0.70;;;10.70;99.60;;;;;;4983728;28;20491;-84
2022/04/07 12:44:27;;;;;;;8.18;0.65;;;10.70;98.90;;;;;;4985546;28;20034;-83
2022/04/07 12:46:54;;;;;;;12.93;0.88;;;10.70;98.40;;;;;;4992149;28;20206;-86
2022/04/07 12:49:30;;;;;;;11.75;0.75;;;10.70;98.30;;;;;;4985109;28;20022;-86
2022/04/07 12:52:03;;;;;;;8.88;0.52;;;10.70;98.60;;;;;;4991037;28;20034;-83
2022/04/07 12:54:29;;;;;;;11.80;0.88;;;10.80;98.10;;;;;;4983583;28;20081;-85
2022/04/07 12:57:12;;;;;;;7.95;0.63;;;11.00;98.30;;;;;;4991271;28;20109;-83
2022/04/07 12:59:57;;;;;;;9.90;0.70;;;11.30;97.60;;;;;;4982333;28;20042;-84
2022/04/07 13:02:23;;;;;;;5.68;0.77;;;11.50;96.90;;;;;;4983891;28;20482;-85